Terminal Aerodrome Forecast
Issued by NWS

Home | Current Version | Previous Version | Text Only | Print | Product List | Glossary On
Versions: 1 2 3 4 5 6 7 8 9 10 11 12 13 14 15 16 17 18 19
000
FTUS42 KJAX 291910 AAA
TAFVQQ
TAF AMD
KVQQ 291910Z 2919/3018 06009KT P6SM VCTS SCT020CB BKN035
      TEMPO 2920/2923 3SM TSRA BR BKN020CB
     FM300300 08004KT P6SM SCT035 BKN100
     FM301600 09008KT P6SM VCTS BKN035CB=

USA.gov is the U.S. government's official web portal to all federal, state and local government web resources and services.